sensor_id;sensor_type;location;lat;lon;timestamp;pressure;altitude;pressure_sealevel;temperature;humidity
55044;BME280;54902;50.420;18.854;2023-12-28T00:00:29;101589.36;;;2.53;74.72
55044;BME280;54902;50.420;18.854;2023-12-28T00:01:00;101594.75;;;2.53;74.72
55044;BME280;54902;50.420;18.854;2023-12-28T00:01:31;101585.73;;;2.54;74.70
55044;BME280;54902;50.420;18.854;2023-12-28T00:02:02;101582.20;;;2.52;74.72
55044;BME280;54902;50.420;18.854;2023-12-28T00:02:33;101577.70;;;2.52;74.71
55044;BME280;54902;50.420;18.854;2023-12-28T00:03:05;101580.34;;;2.54;74.70
55044;BME280;54902;50.420;18.854;2023-12-28T00:03:36;101585.73;;;2.54;74.71
55044;BME280;54902;50.420;18.854;2023-12-28T00:04:07;101580.34;;;2.54;74.70
55044;BME280;54902;50.420;18.854;2023-12-28T00:04:38;101594.69;;;2.54;74.71
55044;BME280;54902;50.420;18.854;2023-12-28T00:05:09;101585.73;;;2.54;74.70
55044;BME280;54902;50.420;18.854;2023-12-28T00:05:40;101584.86;;;2.53;74.70
55044;BME280;54902;50.420;18.854;2023-12-28T00:06:11;101589.36;;;2.53;74.69
55044;BME280;54902;50.420;18.854;2023-12-28T00:06:42;101584.86;;;2.53;74.69
55044;BME280;54902;50.420;18.854;2023-12-28T00:07:13;101569.55;;;2.54;74.69
55044;BME280;54902;50.420;18.854;2023-12-28T00:07:44;101578.50;;;2.54;74.70
55044;BME280;54902;50.420;18.854;2023-12-28T00:08:15;101574.94;;;2.54;74.70
55044;BME280;54902;50.420;18.854;2023-12-28T00:08:46;101574.94;;;2.54;74.70
55044;BME280;54902;50.420;18.854;2023-12-28T00:09:17;101574.09;;;2.53;74.69
55044;BME280;54902;50.420;18.854;2023-12-28T00:09:48;101578.50;;;2.54;74.69
55044;BME280;54902;50.420;18.854;2023-12-28T00:10:19;101570.42;;;2.54;74.70
55044;BME280;54902;50.420;18.854;2023-12-28T00:10:50;101572.25;;;2.54;74.69
55044;BME280;54902;50.420;18.854;2023-12-28T00:11:22;101573.18;;;2.53;74.69
55044;BME280;54902;50.420;18.854;2023-12-28T00:11:54;101576.72;;;2.55;74.69
55044;BME280;54902;50.420;18.854;2023-12-28T00:12:24;101578.50;;;2.54;74.70
55044;BME280;54902;50.420;18.854;2023-12-28T00:12:55;101567.73;;;2.54;74.70
55044;BME280;54902;50.420;18.854;2023-12-28T00:13:26;101566.79;;;2.55;74.69
55044;BME280;54902;50.420;18.854;2023-12-28T00:13:57;101566.86;;;2.54;74.70
55044;BME280;54902;50.420;18.854;2023-12-28T00:14:28;101564.16;;;2.54;74.71
55044;BME280;54902;50.420;18.854;2023-12-28T00:14:59;101566.79;;;2.55;74.71
55044;BME280;54902;50.420;18.854;2023-12-28T00:15:30;101561.47;;;2.54;74.72
55044;BME280;54902;50.420;18.854;2023-12-28T00:16:01;101564.16;;;2.54;74.71
55044;BME280;54902;50.420;18.854;2023-12-28T00:16:32;101564.16;;;2.54;74.71
55044;BME280;54902;50.420;18.854;2023-12-28T00:17:03;101553.37;;;2.54;74.71
55044;BME280;54902;50.420;18.854;2023-12-28T00:17:34;101561.47;;;2.54;74.71
55044;BME280;54902;50.420;18.854;2023-12-28T00:18:05;101557.91;;;2.53;74.69
55044;BME280;54902;50.420;18.854;2023-12-28T00:18:36;101554.30;;;2.53;74.71
55044;BME280;54902;50.420;18.854;2023-12-28T00:19:07;101564.16;;;2.54;74.72
55044;BME280;54902;50.420;18.854;2023-12-28T00:19:38;101557.91;;;2.53;74.71
55044;BME280;54902;50.420;18.854;2023-12-28T00:20:09;101551.61;;;2.53;74.72
55044;BME280;54902;50.420;18.854;2023-12-28T00:20:41;101551.61;;;2.53;74.72
55044;BME280;54902;50.420;18.854;2023-12-28T00:21:12;101552.52;;;2.53;74.72
55044;BME280;54902;50.420;18.854;2023-12-28T00:21:42;101553.37;;;2.54;74.72
55044;BME280;54902;50.420;18.854;2023-12-28T00:22:15;101550.74;;;2.52;74.72
55044;BME280;54902;50.420;18.854;2023-12-28T00:22:46;101553.45;;;2.52;74.75
55044;BME280;54902;50.420;18.854;2023-12-28T00:23:17;101549.84;;;2.52;74.75
55044;BME280;54902;50.420;18.854;2023-12-28T00:23:50;101546.28;;;2.51;74.76
55044;BME280;54902;50.420;18.854;2023-12-28T00:24:21;101555.24;;;2.52;74.76
55044;BME280;54902;50.420;18.854;2023-12-28T00:24:52;101546.28;;;2.51;74.75
55044;BME280;54902;50.420;18.854;2023-12-28T00:25:23;101543.59;;;2.51;74.74
55044;BME280;54902;50.420;18.854;2023-12-28T00:25:54;101555.24;;;2.52;74.74
55044;BME280;54902;50.420;18.854;2023-12-28T00:26:25;101548.98;;;2.51;74.73
55044;BME280;54902;50.420;18.854;2023-12-28T00:26:56;101551.74;;;2.50;74.72
55044;BME280;54902;50.420;18.854;2023-12-28T00:27:27;101543.65;;;2.50;74.72
55044;BME280;54902;50.420;18.854;2023-12-28T00:27:57;101546.34;;;2.50;74.72
55044;BME280;54902;50.420;18.854;2023-12-28T00:28:28;101553.50;;;2.51;74.73
55044;BME280;54902;50.420;18.854;2023-12-28T00:28:59;101549.04;;;2.50;74.71
55044;BME280;54902;50.420;18.854;2023-12-28T00:29:30;101543.65;;;2.50;74.72
55044;BME280;54902;50.420;18.854;2023-12-28T00:30:03;101549.04;;;2.50;74.73
55044;BME280;54902;50.420;18.854;2023-12-28T00:30:35;101540.95;;;2.50;74.73
55044;BME280;54902;50.420;18.854;2023-12-28T00:31:05;101544.57;;;2.49;74.72
55044;BME280;54902;50.420;18.854;2023-12-28T00:31:37;101539.19;;;2.49;74.72
55044;BME280;54902;50.420;18.854;2023-12-28T00:32:08;101537.42;;;2.48;74.73
55044;BME280;54902;50.420;18.854;2023-12-28T00:32:39;101534.70;;;2.49;74.71
55044;BME280;54902;50.420;18.854;2023-12-28T00:33:14;101537.42;;;2.48;74.73
55044;BME280;54902;50.420;18.854;2023-12-28T00:33:45;101530.23;;;2.48;74.73
55044;BME280;54902;50.420;18.854;2023-12-28T00:34:16;101528.40;;;2.49;74.72
55044;BME280;54902;50.420;18.854;2023-12-28T00:34:47;101532.02;;;2.48;74.73
55044;BME280;54902;50.420;18.854;2023-12-28T00:35:18;101529.33;;;2.48;74.74
55044;BME280;54902;50.420;18.854;2023-12-28T00:35:49;101526.63;;;2.48;74.74
55044;BME280;54902;50.420;18.854;2023-12-28T00:36:20;101530.30;;;2.47;74.75
55044;BME280;54902;50.420;18.854;2023-12-28T00:36:51;101530.30;;;2.47;74.75
55044;BME280;54902;50.420;18.854;2023-12-28T00:37:22;101532.99;;;2.47;74.75
55044;BME280;54902;50.420;18.854;2023-12-28T00:37:52;101527.61;;;2.47;74.76
55044;BME280;54902;50.420;18.854;2023-12-28T00:38:23;101535.69;;;2.47;74.76
55044;BME280;54902;50.420;18.854;2023-12-28T00:38:54;101539.25;;;2.47;74.78
55044;BME280;54902;50.420;18.854;2023-12-28T00:39:25;101530.30;;;2.47;74.78
55044;BME280;54902;50.420;18.854;2023-12-28T00:39:56;101536.63;;;2.46;74.81
55044;BME280;54902;50.420;18.854;2023-12-28T00:40:27;101533.93;;;2.46;74.81
55044;BME280;54902;50.420;18.854;2023-12-28T00:40:58;101538.38;;;2.47;74.81
55044;BME280;54902;50.420;18.854;2023-12-28T00:41:29;101536.56;;;2.47;74.81
55044;BME280;54902;50.420;18.854;2023-12-28T00:42:00;101530.30;;;2.47;74.84
55044;BME280;54902;50.420;18.854;2023-12-28T00:42:31;101537.48;;;2.46;74.82
55044;BME280;54902;50.420;18.854;2023-12-28T00:43:02;101530.30;;;2.47;74.84
55044;BME280;54902;50.420;18.854;2023-12-28T00:43:33;101530.30;;;2.47;74.83
55044;BME280;54902;50.420;18.854;2023-12-28T00:44:04;101533.93;;;2.46;74.85
55044;BME280;54902;50.420;18.854;2023-12-28T00:44:39;101528.53;;;2.46;74.87
55044;BME280;54902;50.420;18.854;2023-12-28T00:45:12;101523.13;;;2.46;74.88
55044;BME280;54902;50.420;18.854;2023-12-28T00:45:43;101528.53;;;2.46;74.87
55044;BME280;54902;50.420;18.854;2023-12-28T00:46:13;101524.91;;;2.47;74.89
55044;BME280;54902;50.420;18.854;2023-12-28T00:46:45;101528.53;;;2.46;74.89
55044;BME280;54902;50.420;18.854;2023-12-28T00:47:15;101537.42;;;2.48;74.89
55044;BME280;54902;50.420;18.854;2023-12-28T00:47:46;101531.16;;;2.47;74.89
55044;BME280;54902;50.420;18.854;2023-12-28T00:48:17;101530.30;;;2.47;74.90
55044;BME280;54902;50.420;18.854;2023-12-28T00:48:48;101532.02;;;2.48;74.89
55044;BME280;54902;50.420;18.854;2023-12-28T00:49:19;101531.16;;;2.47;74.90
55044;BME280;54902;50.420;18.854;2023-12-28T00:49:50;101527.61;;;2.47;74.91
55044;BME280;54902;50.420;18.854;2023-12-28T00:50:21;101532.02;;;2.48;74.90
55044;BME280;54902;50.420;18.854;2023-12-28T00:50:53;101526.63;;;2.48;74.91
55044;BME280;54902;50.420;18.854;2023-12-28T00:51:25;101527.54;;;2.48;74.92
55044;BME280;54902;50.420;18.854;2023-12-28T00:51:56;101536.49;;;2.49;74.92
55044;BME280;54902;50.420;18.854;2023-12-28T00:52:27;101533.79;;;2.49;74.94
55044;BME280;54902;50.420;18.854;2023-12-28T00:52:58;101541.88;;;2.49;74.94
55044;BME280;54902;50.420;18.854;2023-12-28T00:53:29;101536.49;;;2.49;74.94
55044;BME280;54902;50.420;18.854;2023-12-28T00:54:00;101538.32;;;2.48;74.94
55044;BME280;54902;50.420;18.854;2023-12-28T00:54:31;101534.70;;;2.49;74.94
55044;BME280;54902;50.420;18.854;2023-12-28T00:55:02;101525.77;;;2.47;74.94
55044;BME280;54902;50.420;18.854;2023-12-28T00:55:33;101533.79;;;2.49;74.96
55044;BME280;54902;50.420;18.854;2023-12-28T00:56:04;101539.19;;;2.49;74.95
55044;BME280;54902;50.420;18.854;2023-12-28T00:56:35;101534.73;;;2.48;74.93
55044;BME280;54902;50.420;18.854;2023-12-28T00:57:06;101540.95;;;2.50;74.95
55044;BME280;54902;50.420;18.854;2023-12-28T00:57:37;101533.79;;;2.49;74.94
55044;BME280;54902;50.420;18.854;2023-12-28T00:58:07;101533.79;;;2.49;74.94
55044;BME280;54902;50.420;18.854;2023-12-28T00:58:39;101537.39;;;2.49;74.95
55044;BME280;54902;50.420;18.854;2023-12-28T00:59:11;101535.56;;;2.50;74.94
55044;BME280;54902;50.420;18.854;2023-12-28T00:59:42;101535.56;;;2.50;74.94
55044;BME280;54902;50.420;18.854;2023-12-28T01:00:14;101531.03;;;2.50;74.95
55044;BME280;54902;50.420;18.854;2023-12-28T01:00:45;101533.73;;;2.50;74.94
55044;BME280;54902;50.420;18.854;2023-12-28T01:01:16;101531.93;;;2.51;74.94
55044;BME280;54902;50.420;18.854;2023-12-28T01:01:47;101534.63;;;2.51;74.96
55044;BME280;54902;50.420;18.854;2023-12-28T01:02:18;101526.54;;;2.51;74.94
55044;BME280;54902;50.420;18.854;2023-12-28T01:02:49;101531.93;;;2.51;74.95
55044;BME280;54902;50.420;18.854;2023-12-28T01:03:21;101530.10;;;2.51;74.96
55044;BME280;54902;50.420;18.854;2023-12-28T01:03:52;101526.54;;;2.51;74.95
55044;BME280;54902;50.420;18.854;2023-12-28T01:04:23;101524.78;;;2.50;74.97
55044;BME280;54902;50.420;18.854;2023-12-28T01:04:54;101525.64;;;2.50;74.96
55044;BME280;54902;50.420;18.854;2023-12-28T01:05:25;101515.83;;;2.49;74.96
55044;BME280;54902;50.420;18.854;2023-12-28T01:05:59;101526.54;;;2.51;74.97
55044;BME280;54902;50.420;18.854;2023-12-28T01:06:29;101515.83;;;2.49;74.97
55044;BME280;54902;50.420;18.854;2023-12-28T01:07:00;101515.76;;;2.51;74.96
55044;BME280;54902;50.420;18.854;2023-12-28T01:07:35;101526.54;;;2.51;74.96
55044;BME280;54902;50.420;18.854;2023-12-28T01:08:06;101525.64;;;2.50;74.98
55044;BME280;54902;50.420;18.854;2023-12-28T01:08:37;101529.23;;;2.51;74.96
55044;BME280;54902;50.420;18.854;2023-12-28T01:09:07;101518.45;;;2.51;74.98
55044;BME280;54902;50.420;18.854;2023-12-28T01:09:38;101513.06;;;2.51;74.99
55044;BME280;54902;50.420;18.854;2023-12-28T01:10:09;101515.76;;;2.51;74.99
55044;BME280;54902;50.420;18.854;2023-12-28T01:10:40;101521.15;;;2.51;75.01
55044;BME280;54902;50.420;18.854;2023-12-28T01:11:11;101515.76;;;2.51;75.02
55044;BME280;54902;50.420;18.854;2023-12-28T01:11:43;101517.55;;;2.50;75.02
55044;BME280;54902;50.420;18.854;2023-12-28T01:12:13;101513.85;;;2.53;75.03
55044;BME280;54902;50.420;18.854;2023-12-28T01:12:44;101524.64;;;2.53;75.07
55044;BME280;54902;50.420;18.854;2023-12-28T01:13:15;101520.15;;;2.53;75.08
55044;BME280;54902;50.420;18.854;2023-12-28T01:13:46;101515.63;;;2.54;75.08
55044;BME280;54902;50.420;18.854;2023-12-28T01:14:17;101520.09;;;2.55;75.11
55044;BME280;54902;50.420;18.854;2023-12-28T01:14:48;101521.88;;;2.54;75.10
55044;BME280;54902;50.420;18.854;2023-12-28T01:15:19;101519.16;;;2.56;75.11
55044;BME280;54902;50.420;18.854;2023-12-28T01:15:51;101508.38;;;2.56;75.14
55044;BME280;54902;50.420;18.854;2023-12-28T01:16:22;101515.48;;;2.57;75.16
55044;BME280;54902;50.420;18.854;2023-12-28T01:16:52;101511.88;;;2.58;75.17
55044;BME280;54902;50.420;18.854;2023-12-28T01:17:23;101512.73;;;2.58;75.20
55044;BME280;54902;50.420;18.854;2023-12-28T01:17:54;101515.40;;;2.60;75.18
55044;BME280;54902;50.420;18.854;2023-12-28T01:18:25;101515.40;;;2.60;75.20
55044;BME280;54902;50.420;18.854;2023-12-28T01:18:56;101511.73;;;2.61;75.21
55044;BME280;54902;50.420;18.854;2023-12-28T01:19:27;101507.24;;;2.61;75.20
55044;BME280;54902;50.420;18.854;2023-12-28T01:19:58;101517.06;;;2.62;75.20
55044;BME280;54902;50.420;18.854;2023-12-28T01:20:29;101511.66;;;2.62;75.20
55044;BME280;54902;50.420;18.854;2023-12-28T01:21:00;101511.63;;;2.64;75.21
55044;BME280;54902;50.420;18.854;2023-12-28T01:21:31;101516.07;;;2.65;75.23
55044;BME280;54902;50.420;18.854;2023-12-28T01:22:02;101514.27;;;2.65;75.22
55044;BME280;54902;50.420;18.854;2023-12-28T01:22:33;101509.73;;;2.66;75.23
55044;BME280;54902;50.420;18.854;2023-12-28T01:23:03;101504.34;;;2.66;75.24
55044;BME280;54902;50.420;18.854;2023-12-28T01:23:34;101505.17;;;2.68;75.25
55044;BME280;54902;50.420;18.854;2023-12-28T01:24:05;101510.56;;;2.68;75.25
55044;BME280;54902;50.420;18.854;2023-12-28T01:24:36;101509.60;;;2.69;75.25
55044;BME280;54902;50.420;18.854;2023-12-28T01:25:07;101514.07;;;2.70;75.26
55044;BME280;54902;50.420;18.854;2023-12-28T01:25:38;101505.05;;;2.71;75.27
55044;BME280;54902;50.420;18.854;2023-12-28T01:26:13;101516.63;;;2.73;75.29
55044;BME280;54902;50.420;18.854;2023-12-28T01:26:44;101512.13;;;2.73;75.29
55044;BME280;54902;50.420;18.854;2023-12-28T01:27:16;101504.90;;;2.74;75.30
55044;BME280;54902;50.420;18.854;2023-12-28T01:27:47;101506.68;;;2.75;75.31
55044;BME280;54902;50.420;18.854;2023-12-28T01:28:18;101509.38;;;2.75;75.31
55044;BME280;54902;50.420;18.854;2023-12-28T01:28:49;101500.35;;;2.76;75.33
55044;BME280;54902;50.420;18.854;2023-12-28T01:29:20;101508.38;;;2.77;75.33
55044;BME280;54902;50.420;18.854;2023-12-28T01:29:51;101493.95;;;2.78;75.33
55044;BME280;54902;50.420;18.854;2023-12-28T01:30:22;101505.60;;;2.79;75.35
55044;BME280;54902;50.420;18.854;2023-12-28T01:30:52;101500.21;;;2.79;75.36
55044;BME280;54902;50.420;18.854;2023-12-28T01:31:24;101493.88;;;2.80;75.37
55044;BME280;54902;50.420;18.854;2023-12-28T01:31:54;101494.69;;;2.82;75.39
55044;BME280;54902;50.420;18.854;2023-12-28T01:32:25;101498.28;;;2.82;75.42
55044;BME280;54902;50.420;18.854;2023-12-28T01:32:56;101492.82;;;2.84;75.46
55044;BME280;54902;50.420;18.854;2023-12-28T01:33:27;101493.68;;;2.84;75.49
55044;BME280;54902;50.420;18.854;2023-12-28T01:33:58;101499.98;;;2.85;75.51
55044;BME280;54902;50.420;18.854;2023-12-28T01:34:29;101498.08;;;2.87;75.54
55044;BME280;54902;50.420;18.854;2023-12-28T01:35:00;101502.54;;;2.88;75.55
55044;BME280;54902;50.420;18.854;2023-12-28T01:35:31;101496.21;;;2.88;75.57
55044;BME280;54902;50.420;18.854;2023-12-28T01:36:02;101496.21;;;2.88;75.58
55044;BME280;54902;50.420;18.854;2023-12-28T01:36:33;101495.24;;;2.89;75.62
55044;BME280;54902;50.420;18.854;2023-12-28T01:37:04;101500.57;;;2.91;75.62
55044;BME280;54902;50.420;18.854;2023-12-28T01:37:35;101493.30;;;2.93;75.65
55044;BME280;54902;50.420;18.854;2023-12-28T01:38:06;101499.56;;;2.93;75.64
55044;BME280;54902;50.420;18.854;2023-12-28T01:38:37;101491.43;;;2.95;75.67
55044;BME280;54902;50.420;18.854;2023-12-28T01:39:08;101494.99;;;2.95;75.68
55044;BME280;54902;50.420;18.854;2023-12-28T01:39:41;101491.37;;;2.96;75.68
55044;BME280;54902;50.420;18.854;2023-12-28T01:40:12;101492.16;;;2.98;75.69
55044;BME280;54902;50.420;18.854;2023-12-28T01:40:46;101490.37;;;2.99;75.69
55044;BME280;54902;50.420;18.854;2023-12-28T01:41:17;101499.26;;;3.01;75.73
55044;BME280;54902;50.420;18.854;2023-12-28T01:41:48;101495.69;;;3.00;75.78
55044;BME280;54902;50.420;18.854;2023-12-28T01:42:19;101497.42;;;3.01;75.78
55044;BME280;54902;50.420;18.854;2023-12-28T01:42:50;101491.92;;;3.04;75.81
55044;BME280;54902;50.420;18.854;2023-12-28T01:43:21;101496.39;;;3.05;75.84
55044;BME280;54902;50.420;18.854;2023-12-28T01:43:52;101492.73;;;3.06;75.86
55044;BME280;54902;50.420;18.854;2023-12-28T01:44:23;101497.17;;;3.07;75.89
55044;BME280;54902;50.420;18.854;2023-12-28T01:44:54;101493.54;;;3.08;75.92
55044;BME280;54902;50.420;18.854;2023-12-28T01:45:25;101492.61;;;3.09;75.93
55044;BME280;54902;50.420;18.854;2023-12-28T01:45:55;101486.24;;;3.10;75.97
55044;BME280;54902;50.420;18.854;2023-12-28T01:46:27;101494.27;;;3.12;75.97
55044;BME280;54902;50.420;18.854;2023-12-28T01:46:58;101490.72;;;3.11;75.99
55044;BME280;54902;50.420;18.854;2023-12-28T01:47:30;101487.02;;;3.14;76.02
55044;BME280;54902;50.420;18.854;2023-12-28T01:48:01;101480.61;;;3.16;76.04
55044;BME280;54902;50.420;18.854;2023-12-28T01:48:32;101484.10;;;3.18;76.04
55044;BME280;54902;50.420;18.854;2023-12-28T01:49:04;101485.87;;;3.19;76.01
55044;BME280;54902;50.420;18.854;2023-12-28T01:49:35;101481.29;;;3.21;76.03
55044;BME280;54902;50.420;18.854;2023-12-28T01:50:07;101484.78;;;3.23;76.01
55044;BME280;54902;50.420;18.854;2023-12-28T01:50:39;101483.85;;;3.24;76.01
55044;BME280;54902;50.420;18.854;2023-12-28T01:51:11;101478.38;;;3.26;76.02
55044;BME280;54902;50.420;18.854;2023-12-28T01:51:44;101479.20;;;3.28;76.00
55044;BME280;54902;50.420;18.854;2023-12-28T01:52:16;101482.77;;;3.28;76.00
55044;BME280;54902;50.420;18.854;2023-12-28T01:52:47;101482.63;;;3.31;76.05
55044;BME280;54902;50.420;18.854;2023-12-28T01:53:19;101481.70;;;3.32;76.06
55044;BME280;54902;50.420;18.854;2023-12-28T01:53:51;101474.43;;;3.34;76.05
55044;BME280;54902;50.420;18.854;2023-12-28T01:54:23;101475.22;;;3.36;76.05
55044;BME280;54902;50.420;18.854;2023-12-28T01:54:54;101476.04;;;3.38;76.05
55044;BME280;54902;50.420;18.854;2023-12-28T01:55:26;101472.37;;;3.39;76.05
55044;BME280;54902;50.420;18.854;2023-12-28T01:55:59;101475.90;;;3.41;76.06
55044;BME280;54902;50.420;18.854;2023-12-28T01:56:30;101467.73;;;3.43;76.05
55044;BME280;54902;50.420;18.854;2023-12-28T01:57:01;101469.49;;;3.44;76.05
55044;BME280;54902;50.420;18.854;2023-12-28T01:57:34;101459.48;;;3.45;76.02
55044;BME280;54902;50.420;18.854;2023-12-28T01:58:05;101455.84;;;3.46;76.02
55044;BME280;54902;50.420;18.854;2023-12-28T01:58:37;101465.70;;;3.47;76.05
55044;BME280;54902;50.420;18.854;2023-12-28T01:59:11;101460.23;;;3.49;76.04
55044;BME280;54902;50.420;18.854;2023-12-28T01:59:42;101447.96;;;3.42;76.02
55044;BME280;54902;50.420;18.854;2023-12-28T02:00:14;101463.73;;;3.51;76.03
55044;BME280;54902;50.420;18.854;2023-12-28T02:00:44;101459.15;;;3.53;76.02
55044;BME280;54902;50.420;18.854;2023-12-28T02:01:17;101453.74;;;3.53;76.00
55044;BME280;54902;50.420;18.854;2023-12-28T02:01:48;101458.14;;;3.55;75.97
55044;BME280;54902;50.420;18.854;2023-12-28T02:02:19;101458.14;;;3.55;75.97
55044;BME280;54902;50.420;18.854;2023-12-28T02:02:50;101460.76;;;3.57;75.94
55044;BME280;54902;50.420;18.854;2023-12-28T02:03:22;101459.83;;;3.58;75.92
55044;BME280;54902;50.420;18.854;2023-12-28T02:03:54;101459.76;;;3.59;75.92
55044;BME280;54902;50.420;18.854;2023-12-28T02:04:26;101461.52;;;3.60;75.91
55044;BME280;54902;50.420;18.854;2023-12-28T02:04:59;101453.42;;;3.60;75.90
55044;BME280;54902;50.420;18.854;2023-12-28T02:05:30;101458.75;;;3.62;75.90
55044;BME280;54902;50.420;18.854;2023-12-28T02:06:02;101454.20;;;3.62;75.89
55044;BME280;54902;50.420;18.854;2023-12-28T02:06:34;101455.97;;;3.63;75.85
55044;BME280;54902;50.420;18.854;2023-12-28T02:07:05;101457.73;;;3.64;75.85
55044;BME280;54902;50.420;18.854;2023-12-28T02:07:37;101454.13;;;3.64;75.83
55044;BME280;54902;50.420;18.854;2023-12-28T02:08:08;101455.89;;;3.65;75.81
55044;BME280;54902;50.420;18.854;2023-12-28T02:08:40;101453.20;;;3.65;75.80
55044;BME280;54902;50.420;18.854;2023-12-28T02:09:11;101453.20;;;3.65;75.80
55044;BME280;54902;50.420;18.854;2023-12-28T02:09:42;101445.95;;;3.65;75.78
55044;BME280;54902;50.420;18.854;2023-12-28T02:10:13;101445.95;;;3.65;75.75
55044;BME280;54902;50.420;18.854;2023-12-28T02:10:44;101443.55;;;3.59;75.76
55044;BME280;54902;50.420;18.854;2023-12-28T02:11:15;101445.91;;;3.67;75.76
55044;BME280;54902;50.420;18.854;2023-12-28T02:11:46;101457.59;;;3.67;75.74
55044;BME280;54902;50.420;18.854;2023-12-28T02:12:17;101456.72;;;3.67;75.72
55044;BME280;54902;50.420;18.854;2023-12-28T02:12:48;101452.18;;;3.67;75.72
55044;BME280;54902;50.420;18.854;2023-12-28T02:13:21;101446.78;;;3.67;75.71
55044;BME280;54902;50.420;18.854;2023-12-28T02:13:52;101440.52;;;3.67;75.71
55044;BME280;54902;50.420;18.854;2023-12-28T02:14:23;101446.78;;;3.67;75.68
55044;BME280;54902;50.420;18.854;2023-12-28T02:14:54;101453.05;;;3.68;75.68
55044;BME280;54902;50.420;18.854;2023-12-28T02:15:25;101457.59;;;3.67;75.69
55044;BME280;54902;50.420;18.854;2023-12-28T02:16:13;101453.05;;;3.68;75.68
55044;BME280;54902;50.420;18.854;2023-12-28T02:16:44;101444.00;;;3.69;75.69
55044;BME280;54902;50.420;18.854;2023-12-28T02:17:23;101447.64;;;3.68;75.71
55044;BME280;54902;50.420;18.854;2023-12-28T02:17:59;101447.64;;;3.68;75.75
55044;BME280;54902;50.420;18.854;2023-12-28T02:18:38;101453.05;;;3.68;75.76
55044;BME280;54902;50.420;18.854;2023-12-28T02:19:54;101437.81;;;3.67;75.79
55044;BME280;54902;50.420;18.854;2023-12-28T02:19:57;101435.11;;;3.67;75.78
55044;BME280;54902;50.420;18.854;2023-12-28T02:20:31;101449.48;;;3.67;75.80
55044;BME280;54902;50.420;18.854;2023-12-28T02:21:04;101453.95;;;3.68;75.80
55044;BME280;54902;50.420;18.854;2023-12-28T02:21:36;101447.64;;;3.68;75.82
55044;BME280;54902;50.420;18.854;2023-12-28T02:22:08;101448.55;;;3.68;75.84
55044;BME280;54902;50.420;18.854;2023-12-28T02:22:40;101452.11;;;3.69;75.88
55044;BME280;54902;50.420;18.854;2023-12-28T02:23:11;101450.30;;;3.69;75.90
55044;BME280;54902;50.420;18.854;2023-12-28T02:23:48;101449.40;;;3.69;75.90
55044;BME280;54902;50.420;18.854;2023-12-28T02:24:20;101444.91;;;3.69;75.93
55044;BME280;54902;50.420;18.854;2023-12-28T02:25:33;101445.77;;;3.70;76.00
55044;BME280;54902;50.420;18.854;2023-12-28T02:26:04;101452.94;;;3.71;76.00
55044;BME280;54902;50.420;18.854;2023-12-28T02:26:35;101453.79;;;3.71;76.02
55044;BME280;54902;50.420;18.854;2023-12-28T02:27:06;101447.45;;;3.72;76.03
55044;BME280;54902;50.420;18.854;2023-12-28T02:27:39;101443.85;;;3.72;76.04
55044;BME280;54902;50.420;18.854;2023-12-28T02:28:12;101447.39;;;3.74;76.02
55044;BME280;54902;50.420;18.854;2023-12-28T02:28:46;101452.78;;;3.74;76.05
55044;BME280;54902;50.420;18.854;2023-12-28T02:29:18;101449.15;;;3.75;76.07
55044;BME280;54902;50.420;18.854;2023-12-28T02:29:49;101450.88;;;3.76;76.05
55044;BME280;54902;50.420;18.854;2023-12-28T02:30:22;101446.37;;;3.76;76.06
55044;BME280;54902;50.420;18.854;2023-12-28T02:30:53;101454.39;;;3.78;76.06
55044;BME280;54902;50.420;18.854;2023-12-28T02:31:32;101446.29;;;3.78;76.04
55044;BME280;54902;50.420;18.854;2023-12-28T02:32:08;101447.09;;;3.80;76.04
55044;BME280;54902;50.420;18.854;2023-12-28T02:33:30;101438.94;;;3.81;76.02
55044;BME280;54902;50.420;18.854;2023-12-28T02:34:16;101446.06;;;3.82;76.03
55044;BME280;54902;50.420;18.854;2023-12-28T02:34:55;101435.34;;;3.81;76.12
55044;BME280;54902;50.420;18.854;2023-12-28T02:36:12;101440.55;;;3.85;76.00
55044;BME280;54902;50.420;18.854;2023-12-28T02:36:45;101436.88;;;3.86;76.00
55044;BME280;54902;50.420;18.854;2023-12-28T02:37:18;101442.23;;;3.88;76.00
55044;BME280;54902;50.420;18.854;2023-12-28T02:37:52;101449.45;;;3.87;75.99
55044;BME280;54902;50.420;18.854;2023-12-28T02:38:25;101444.94;;;3.88;76.00
55044;BME280;54902;50.420;18.854;2023-12-28T02:38:59;101443.02;;;3.90;75.94
55044;BME280;54902;50.420;18.854;2023-12-28T02:39:34;101433.08;;;3.90;76.02
55044;BME280;54902;50.420;18.854;2023-12-28T02:40:06;101434.84;;;3.91;76.06
55044;BME280;54902;50.420;18.854;2023-12-28T02:40:42;101432.13;;;3.91;76.08
55044;BME280;54902;50.420;18.854;2023-12-28T02:41:16;101433.02;;;3.92;76.06
55044;BME280;54902;50.420;18.854;2023-12-28T02:41:48;101434.77;;;3.93;76.07
55044;BME280;54902;50.420;18.854;2023-12-28T02:42:19;101432.02;;;3.94;76.07
55044;BME280;54902;50.420;18.854;2023-12-28T02:42:50;101428.41;;;3.94;76.06
55044;BME280;54902;50.420;18.854;2023-12-28T02:43:22;101427.40;;;3.96;76.06
55044;BME280;54902;50.420;18.854;2023-12-28T02:43:53;101422.87;;;3.97;76.05
55044;BME280;54902;50.420;18.854;2023-12-28T02:44:24;101426.47;;;3.97;76.05
55044;BME280;54902;50.420;18.854;2023-12-28T02:44:55;101424.63;;;3.98;76.06
55044;BME280;54902;50.420;18.854;2023-12-28T02:45:25;101424.63;;;3.98;76.06
55044;BME280;54902;50.420;18.854;2023-12-28T02:45:57;101417.33;;;4.00;76.07
55044;BME280;54902;50.420;18.854;2023-12-28T02:46:28;101422.73;;;4.00;76.13
55044;BME280;54902;50.420;18.854;2023-12-28T02:46:59;101422.66;;;4.01;76.11
55044;BME280;54902;50.420;18.854;2023-12-28T02:47:30;101421.72;;;4.02;76.13
55044;BME280;54902;50.420;18.854;2023-12-28T02:48:01;101419.88;;;4.03;76.13